sensor_id;sensor_type;location;lat;lon;timestamp;temperature;humidity
8888;DHT22;4480;52.370;9.748;2023-08-17T00:00:01;19.00;99.90
8888;DHT22;4480;52.370;9.748;2023-08-17T00:02:29;19.00;99.90
8888;DHT22;4480;52.370;9.748;2023-08-17T00:04:55;19.00;99.90
8888;DHT22;4480;52.370;9.748;2023-08-17T00:07:21;19.00;99.90
8888;DHT22;4480;52.370;9.748;2023-08-17T00:09:49;19.00;99.90
8888;DHT22;4480;52.370;9.748;2023-08-17T00:12:16;19.00;99.90
8888;DHT22;4480;52.370;9.748;2023-08-17T00:14:42;19.00;99.90
8888;DHT22;4480;52.370;9.748;2023-08-17T00:17:09;18.90;99.90
8888;DHT22;4480;52.370;9.748;2023-08-17T00:19:36;18.90;99.90
8888;DHT22;4480;52.370;9.748;2023-08-17T00:22:03;18.90;99.90
8888;DHT22;4480;52.370;9.748;2023-08-17T00:24:30;18.90;99.90
8888;DHT22;4480;52.370;9.748;2023-08-17T00:26:58;18.90;99.90
8888;DHT22;4480;52.370;9.748;2023-08-17T00:29:24;18.80;99.90
8888;DHT22;4480;52.370;9.748;2023-08-17T00:31:51;18.80;99.90
8888;DHT22;4480;52.370;9.748;2023-08-17T00:34:18;18.80;99.90
8888;DHT22;4480;52.370;9.748;2023-08-17T00:36:45;18.80;99.90
8888;DHT22;4480;52.370;9.748;2023-08-17T00:39:12;18.80;99.90
8888;DHT22;4480;52.370;9.748;2023-08-17T00:41:39;18.70;99.90
8888;DHT22;4480;52.370;9.748;2023-08-17T00:44:08;18.70;99.90
8888;DHT22;4480;52.370;9.748;2023-08-17T00:46:35;18.70;99.90
8888;DHT22;4480;52.370;9.748;2023-08-17T00:49:02;18.60;99.90
8888;DHT22;4480;52.370;9.748;2023-08-17T00:51:29;18.60;99.90
8888;DHT22;4480;52.370;9.748;2023-08-17T00:53:58;18.50;99.90
8888;DHT22;4480;52.370;9.748;2023-08-17T00:56:26;18.50;99.90
8888;DHT22;4480;52.370;9.748;2023-08-17T00:58:53;18.50;99.90
8888;DHT22;4480;52.370;9.748;2023-08-17T01:01:22;18.40;99.90
8888;DHT22;4480;52.370;9.748;2023-08-17T01:03:49;18.40;99.90
8888;DHT22;4480;52.370;9.748;2023-08-17T01:06:16;18.30;99.90
8888;DHT22;4480;52.370;9.748;2023-08-17T01:08:43;18.30;99.90
8888;DHT22;4480;52.370;9.748;2023-08-17T01:11:17;18.30;99.90
8888;DHT22;4480;52.370;9.748;2023-08-17T01:13:49;18.30;99.90
8888;DHT22;4480;52.370;9.748;2023-08-17T01:16:24;18.20;99.90
8888;DHT22;4480;52.370;9.748;2023-08-17T01:18:52;18.20;99.90
8888;DHT22;4480;52.370;9.748;2023-08-17T01:21:21;18.20;99.90
8888;DHT22;4480;52.370;9.748;2023-08-17T01:23:52;18.20;99.90
8888;DHT22;4480;52.370;9.748;2023-08-17T01:26:18;18.20;99.90
8888;DHT22;4480;52.370;9.748;2023-08-17T01:28:46;18.20;99.90
8888;DHT22;4480;52.370;9.748;2023-08-17T01:31:18;18.20;99.90
8888;DHT22;4480;52.370;9.748;2023-08-17T01:33:49;18.10;99.90
8888;DHT22;4480;52.370;9.748;2023-08-17T01:36:20;18.10;99.90
8888;DHT22;4480;52.370;9.748;2023-08-17T01:38:52;18.00;99.90
8888;DHT22;4480;52.370;9.748;2023-08-17T01:41:22;18.00;99.90
8888;DHT22;4480;52.370;9.748;2023-08-17T01:43:50;18.00;99.90
8888;DHT22;4480;52.370;9.748;2023-08-17T01:46:17;17.90;99.90
8888;DHT22;4480;52.370;9.748;2023-08-17T01:48:45;17.90;99.90
8888;DHT22;4480;52.370;9.748;2023-08-17T01:51:18;17.90;99.90
8888;DHT22;4480;52.370;9.748;2023-08-17T01:53:45;17.80;99.90
8888;DHT22;4480;52.370;9.748;2023-08-17T01:56:14;17.70;99.90
8888;DHT22;4480;52.370;9.748;2023-08-17T01:58:40;17.70;99.90
8888;DHT22;4480;52.370;9.748;2023-08-17T02:01:07;17.70;99.90
8888;DHT22;4480;52.370;9.748;2023-08-17T02:03:34;17.60;99.90
8888;DHT22;4480;52.370;9.748;2023-08-17T02:06:01;17.50;99.90
8888;DHT22;4480;52.370;9.748;2023-08-17T02:08:29;17.40;99.90
8888;DHT22;4480;52.370;9.748;2023-08-17T02:10:56;17.30;99.90
8888;DHT22;4480;52.370;9.748;2023-08-17T02:13:24;17.20;99.90
8888;DHT22;4480;52.370;9.748;2023-08-17T02:15:52;17.10;99.90
8888;DHT22;4480;52.370;9.748;2023-08-17T02:18:19;17.00;99.90
8888;DHT22;4480;52.370;9.748;2023-08-17T02:20:46;17.00;99.90
8888;DHT22;4480;52.370;9.748;2023-08-17T02:23:13;16.90;99.90
8888;DHT22;4480;52.370;9.748;2023-08-17T02:25:39;16.90;99.90
8888;DHT22;4480;52.370;9.748;2023-08-17T02:28:06;16.90;99.90
8888;DHT22;4480;52.370;9.748;2023-08-17T02:30:34;16.90;99.90
8888;DHT22;4480;52.370;9.748;2023-08-17T02:33:01;16.90;99.90
8888;DHT22;4480;52.370;9.748;2023-08-17T02:35:28;16.90;99.90
8888;DHT22;4480;52.370;9.748;2023-08-17T02:37:54;16.80;99.90
8888;DHT22;4480;52.370;9.748;2023-08-17T02:40:21;16.80;99.90
8888;DHT22;4480;52.370;9.748;2023-08-17T02:42:48;16.90;99.90
8888;DHT22;4480;52.370;9.748;2023-08-17T02:45:15;16.80;99.90
8888;DHT22;4480;52.370;9.748;2023-08-17T02:47:43;16.80;99.90
8888;DHT22;4480;52.370;9.748;2023-08-17T02:50:10;16.80;99.90
8888;DHT22;4480;52.370;9.748;2023-08-17T02:52:37;16.80;99.90
8888;DHT22;4480;52.370;9.748;2023-08-17T02:55:04;16.80;99.90
8888;DHT22;4480;52.370;9.748;2023-08-17T02:57:31;16.80;99.90
8888;DHT22;4480;52.370;9.748;2023-08-17T02:59:58;16.80;99.90
8888;DHT22;4480;52.370;9.748;2023-08-17T03:02:26;16.80;99.90
8888;DHT22;4480;52.370;9.748;2023-08-17T03:04:54;16.80;99.90
8888;DHT22;4480;52.370;9.748;2023-08-17T03:07:20;16.80;99.90
8888;DHT22;4480;52.370;9.748;2023-08-17T03:09:47;16.80;99.90
8888;DHT22;4480;52.370;9.748;2023-08-17T03:12:14;16.80;99.90
8888;DHT22;4480;52.370;9.748;2023-08-17T03:14:41;16.80;99.90
8888;DHT22;4480;52.370;9.748;2023-08-17T03:17:07;16.80;99.90
8888;DHT22;4480;52.370;9.748;2023-08-17T03:19:34;16.80;99.90
8888;DHT22;4480;52.370;9.748;2023-08-17T03:22:02;16.80;99.90
8888;DHT22;4480;52.370;9.748;2023-08-17T03:24:29;16.80;99.90
8888;DHT22;4480;52.370;9.748;2023-08-17T03:26:56;16.80;99.90
8888;DHT22;4480;52.370;9.748;2023-08-17T03:29:22;16.80;99.90
8888;DHT22;4480;52.370;9.748;2023-08-17T03:31:49;16.80;99.90
8888;DHT22;4480;52.370;9.748;2023-08-17T03:34:16;16.80;99.90
8888;DHT22;4480;52.370;9.748;2023-08-17T03:36:43;16.90;99.90
8888;DHT22;4480;52.370;9.748;2023-08-17T03:39:11;16.90;99.90
8888;DHT22;4480;52.370;9.748;2023-08-17T03:41:37;16.90;99.90
8888;DHT22;4480;52.370;9.748;2023-08-17T03:44:05;16.90;99.90
8888;DHT22;4480;52.370;9.748;2023-08-17T03:46:32;16.90;99.90
8888;DHT22;4480;52.370;9.748;2023-08-17T03:48:59;16.90;99.90
8888;DHT22;4480;52.370;9.748;2023-08-17T03:51:26;16.90;99.90
8888;DHT22;4480;52.370;9.748;2023-08-17T03:53:52;16.90;99.90
8888;DHT22;4480;52.370;9.748;2023-08-17T03:56:21;16.90;99.90
8888;DHT22;4480;52.370;9.748;2023-08-17T03:58:47;16.90;99.90
8888;DHT22;4480;52.370;9.748;2023-08-17T04:01:14;16.90;99.90
8888;DHT22;4480;52.370;9.748;2023-08-17T04:03:41;16.90;99.90
8888;DHT22;4480;52.370;9.748;2023-08-17T04:06:08;17.00;99.90
8888;DHT22;4480;52.370;9.748;2023-08-17T04:12:05;17.00;99.90
8888;DHT22;4480;52.370;9.748;2023-08-17T04:14:32;17.00;99.90
8888;DHT22;4480;52.370;9.748;2023-08-17T04:16:58;17.10;99.90
8888;DHT22;4480;52.370;9.748;2023-08-17T04:19:25;17.10;99.90
8888;DHT22;4480;52.370;9.748;2023-08-17T04:21:52;17.10;99.90
8888;DHT22;4480;52.370;9.748;2023-08-17T04:24:19;17.10;99.90
8888;DHT22;4480;52.370;9.748;2023-08-17T04:26:46;17.10;99.90
8888;DHT22;4480;52.370;9.748;2023-08-17T04:29:14;17.20;99.90
8888;DHT22;4480;52.370;9.748;2023-08-17T04:31:41;17.20;99.90
8888;DHT22;4480;52.370;9.748;2023-08-17T04:34:08;17.20;99.90
8888;DHT22;4480;52.370;9.748;2023-08-17T04:36:34;17.20;99.90
8888;DHT22;4480;52.370;9.748;2023-08-17T04:39:01;17.20;99.90
8888;DHT22;4480;52.370;9.748;2023-08-17T04:41:29;17.20;99.90
8888;DHT22;4480;52.370;9.748;2023-08-17T04:43:56;17.30;99.90
8888;DHT22;4480;52.370;9.748;2023-08-17T04:46:24;17.30;99.90
8888;DHT22;4480;52.370;9.748;2023-08-17T04:48:51;17.30;99.90
8888;DHT22;4480;52.370;9.748;2023-08-17T04:51:18;17.30;99.90
8888;DHT22;4480;52.370;9.748;2023-08-17T04:53:45;17.30;99.90
8888;DHT22;4480;52.370;9.748;2023-08-17T04:56:11;17.30;99.90
8888;DHT22;4480;52.370;9.748;2023-08-17T04:58:38;17.30;99.90
8888;DHT22;4480;52.370;9.748;2023-08-17T05:01:05;17.40;99.90
8888;DHT22;4480;52.370;9.748;2023-08-17T05:03:33;17.40;99.90
8888;DHT22;4480;52.370;9.748;2023-08-17T05:06:00;17.40;99.90
8888;DHT22;4480;52.370;9.748;2023-08-17T05:08:27;17.40;99.90
8888;DHT22;4480;52.370;9.748;2023-08-17T05:10:53;17.40;99.90
8888;DHT22;4480;52.370;9.748;2023-08-17T05:13:20;17.40;99.90
8888;DHT22;4480;52.370;9.748;2023-08-17T05:15:47;17.40;99.90
8888;DHT22;4480;52.370;9.748;2023-08-17T05:18:14;17.40;99.90
8888;DHT22;4480;52.370;9.748;2023-08-17T05:20:42;17.40;99.90
8888;DHT22;4480;52.370;9.748;2023-08-17T05:23:08;17.50;99.90
8888;DHT22;4480;52.370;9.748;2023-08-17T05:25:35;17.50;99.90
8888;DHT22;4480;52.370;9.748;2023-08-17T05:28:02;17.50;99.90
8888;DHT22;4480;52.370;9.748;2023-08-17T05:30:29;17.50;99.90
8888;DHT22;4480;52.370;9.748;2023-08-17T05:32:56;17.60;99.90
8888;DHT22;4480;52.370;9.748;2023-08-17T05:35:22;17.60;99.90
8888;DHT22;4480;52.370;9.748;2023-08-17T05:37:51;17.60;99.90
8888;DHT22;4480;52.370;9.748;2023-08-17T05:40:17;17.60;99.90
8888;DHT22;4480;52.370;9.748;2023-08-17T05:42:44;17.60;99.90
8888;DHT22;4480;52.370;9.748;2023-08-17T05:45:11;17.60;99.90
8888;DHT22;4480;52.370;9.748;2023-08-17T05:47:38;17.60;99.90
8888;DHT22;4480;52.370;9.748;2023-08-17T05:50:05;17.60;99.90
8888;DHT22;4480;52.370;9.748;2023-08-17T05:52:32;17.70;99.90
8888;DHT22;4480;52.370;9.748;2023-08-17T05:55:01;17.60;99.90
8888;DHT22;4480;52.370;9.748;2023-08-17T05:57:27;17.70;99.90
8888;DHT22;4480;52.370;9.748;2023-08-17T05:59:54;17.70;99.90
8888;DHT22;4480;52.370;9.748;2023-08-17T06:02:21;17.70;99.90
8888;DHT22;4480;52.370;9.748;2023-08-17T06:04:48;17.70;99.90
8888;DHT22;4480;52.370;9.748;2023-08-17T06:07:14;17.70;99.90
8888;DHT22;4480;52.370;9.748;2023-08-17T06:09:41;17.70;99.90
8888;DHT22;4480;52.370;9.748;2023-08-17T06:12:09;17.70;99.90
8888;DHT22;4480;52.370;9.748;2023-08-17T06:14:36;17.70;99.90
8888;DHT22;4480;52.370;9.748;2023-08-17T06:17:03;17.70;99.90
8888;DHT22;4480;52.370;9.748;2023-08-17T06:19:30;17.70;99.90
8888;DHT22;4480;52.370;9.748;2023-08-17T06:21:57;17.70;99.90
8888;DHT22;4480;52.370;9.748;2023-08-17T06:24:23;17.70;99.90
8888;DHT22;4480;52.370;9.748;2023-08-17T06:26:50;17.70;99.90
8888;DHT22;4480;52.370;9.748;2023-08-17T06:29:18;17.80;99.90
8888;DHT22;4480;52.370;9.748;2023-08-17T06:31:45;17.70;99.90
8888;DHT22;4480;52.370;9.748;2023-08-17T06:34:12;17.80;99.90
8888;DHT22;4480;52.370;9.748;2023-08-17T06:36:38;17.80;99.90
8888;DHT22;4480;52.370;9.748;2023-08-17T06:39:05;17.80;99.90
8888;DHT22;4480;52.370;9.748;2023-08-17T06:41:34;17.80;99.90
8888;DHT22;4480;52.370;9.748;2023-08-17T06:44:00;17.80;99.90
8888;DHT22;4480;52.370;9.748;2023-08-17T06:46:29;17.80;99.90
8888;DHT22;4480;52.370;9.748;2023-08-17T06:48:55;17.90;99.90
8888;DHT22;4480;52.370;9.748;2023-08-17T06:51:22;17.80;99.90
8888;DHT22;4480;52.370;9.748;2023-08-17T06:53:49;17.80;99.90
8888;DHT22;4480;52.370;9.748;2023-08-17T06:56:15;17.80;99.90
8888;DHT22;4480;52.370;9.748;2023-08-17T06:58:42;17.80;99.90
8888;DHT22;4480;52.370;9.748;2023-08-17T07:01:09;17.90;99.90
8888;DHT22;4480;52.370;9.748;2023-08-17T07:03:37;17.90;99.90
8888;DHT22;4480;52.370;9.748;2023-08-17T07:06:04;17.90;99.90
8888;DHT22;4480;52.370;9.748;2023-08-17T07:08:30;17.90;99.90
8888;DHT22;4480;52.370;9.748;2023-08-17T07:10:58;17.90;99.90
8888;DHT22;4480;52.370;9.748;2023-08-17T07:13:25;17.90;99.90
8888;DHT22;4480;52.370;9.748;2023-08-17T07:15:52;17.90;99.90
8888;DHT22;4480;52.370;9.748;2023-08-17T07:18:18;18.00;99.90
8888;DHT22;4480;52.370;9.748;2023-08-17T07:20:46;18.00;99.90
8888;DHT22;4480;52.370;9.748;2023-08-17T07:23:14;18.00;99.90
8888;DHT22;4480;52.370;9.748;2023-08-17T07:25:41;18.00;99.90
8888;DHT22;4480;52.370;9.748;2023-08-17T07:28:08;18.10;99.90
8888;DHT22;4480;52.370;9.748;2023-08-17T07:30:35;18.10;99.90
8888;DHT22;4480;52.370;9.748;2023-08-17T07:33:01;18.10;99.90
8888;DHT22;4480;52.370;9.748;2023-08-17T07:35:28;18.10;99.90
8888;DHT22;4480;52.370;9.748;2023-08-17T07:37:56;18.10;99.90
8888;DHT22;4480;52.370;9.748;2023-08-17T07:40:23;18.20;99.90
8888;DHT22;4480;52.370;9.748;2023-08-17T07:42:50;18.20;99.90
8888;DHT22;4480;52.370;9.748;2023-08-17T07:45:17;18.20;99.90
8888;DHT22;4480;52.370;9.748;2023-08-17T07:47:43;18.20;99.90
8888;DHT22;4480;52.370;9.748;2023-08-17T07:50:10;18.20;99.90
8888;DHT22;4480;52.370;9.748;2023-08-17T07:52:37;18.20;99.90
8888;DHT22;4480;52.370;9.748;2023-08-17T07:55:05;18.30;99.90
8888;DHT22;4480;52.370;9.748;2023-08-17T07:57:32;18.30;99.90
8888;DHT22;4480;52.370;9.748;2023-08-17T07:59:59;18.40;99.90
8888;DHT22;4480;52.370;9.748;2023-08-17T08:02:26;18.40;99.90
8888;DHT22;4480;52.370;9.748;2023-08-17T08:04:52;18.40;99.90
8888;DHT22;4480;52.370;9.748;2023-08-17T08:07:19;18.50;99.90
8888;DHT22;4480;52.370;9.748;2023-08-17T08:09:46;18.50;99.90
8888;DHT22;4480;52.370;9.748;2023-08-17T08:12:14;18.50;99.90
8888;DHT22;4480;52.370;9.748;2023-08-17T08:14:41;18.50;99.90
8888;DHT22;4480;52.370;9.748;2023-08-17T08:17:07;18.50;99.90
8888;DHT22;4480;52.370;9.748;2023-08-17T08:19:35;18.60;99.90
8888;DHT22;4480;52.370;9.748;2023-08-17T08:22:01;18.60;99.90
8888;DHT22;4480;52.370;9.748;2023-08-17T08:24:28;18.60;99.90
8888;DHT22;4480;52.370;9.748;2023-08-17T08:26:59;18.60;99.90
8888;DHT22;4480;52.370;9.748;2023-08-17T08:29:27;18.60;99.90
8888;DHT22;4480;52.370;9.748;2023-08-17T08:31:54;18.50;99.90
8888;DHT22;4480;52.370;9.748;2023-08-17T08:34:22;18.50;99.90
8888;DHT22;4480;52.370;9.748;2023-08-17T08:36:49;18.50;99.90
8888;DHT22;4480;52.370;9.748;2023-08-17T08:39:16;18.50;99.90
8888;DHT22;4480;52.370;9.748;2023-08-17T08:41:43;18.50;99.90
8888;DHT22;4480;52.370;9.748;2023-08-17T08:44:10;18.50;99.90
8888;DHT22;4480;52.370;9.748;2023-08-17T08:46:40;18.40;99.90
8888;DHT22;4480;52.370;9.748;2023-08-17T08:49:10;18.50;99.90
8888;DHT22;4480;52.370;9.748;2023-08-17T08:51:41;18.50;99.90
8888;DHT22;4480;52.370;9.748;2023-08-17T08:54:13;18.50;99.90
8888;DHT22;4480;52.370;9.748;2023-08-17T08:56:42;18.50;99.90
8888;DHT22;4480;52.370;9.748;2023-08-17T08:59:10;18.60;99.90
8888;DHT22;4480;52.370;9.748;2023-08-17T09:01:40;18.70;99.90
8888;DHT22;4480;52.370;9.748;2023-08-17T09:04:07;18.80;99.90
8888;DHT22;4480;52.370;9.748;2023-08-17T09:06:34;18.90;99.90
8888;DHT22;4480;52.370;9.748;2023-08-17T09:09:01;18.90;99.90
8888;DHT22;4480;52.370;9.748;2023-08-17T09:11:29;18.90;99.90
8888;DHT22;4480;52.370;9.748;2023-08-17T09:13:56;18.90;99.90
8888;DHT22;4480;52.370;9.748;2023-08-17T09:16:23;18.90;99.90
8888;DHT22;4480;52.370;9.748;2023-08-17T09:18:52;18.90;99.90
8888;DHT22;4480;52.370;9.748;2023-08-17T09:21:23;18.90;99.90
8888;DHT22;4480;52.370;9.748;2023-08-17T09:23:53;18.90;99.90
8888;DHT22;4480;52.370;9.748;2023-08-17T09:26:21;18.90;99.90
8888;DHT22;4480;52.370;9.748;2023-08-17T09:28:49;18.80;99.90
8888;DHT22;4480;52.370;9.748;2023-08-17T09:31:16;18.70;99.90
8888;DHT22;4480;52.370;9.748;2023-08-17T09:33:43;18.60;99.90
8888;DHT22;4480;52.370;9.748;2023-08-17T09:36:11;18.60;99.90
8888;DHT22;4480;52.370;9.748;2023-08-17T09:38:38;18.60;99.90
8888;DHT22;4480;52.370;9.748;2023-08-17T09:41:05;18.60;99.90
8888;DHT22;4480;52.370;9.748;2023-08-17T09:43:32;18.50;99.90
8888;DHT22;4480;52.370;9.748;2023-08-17T09:46:00;18.50;99.90
8888;DHT22;4480;52.370;9.748;2023-08-17T09:48:28;18.50;99.90
8888;DHT22;4480;52.370;9.748;2023-08-17T09:50:56;18.50;99.90
8888;DHT22;4480;52.370;9.748;2023-08-17T09:53:24;18.50;99.90
8888;DHT22;4480;52.370;9.748;2023-08-17T09:55:53;18.50;99.90
8888;DHT22;4480;52.370;9.748;2023-08-17T09:58:21;18.60;99.90
8888;DHT22;4480;52.370;9.748;2023-08-17T10:00:49;18.50;99.90
8888;DHT22;4480;52.370;9.748;2023-08-17T10:03:17;18.50;99.90
8888;DHT22;4480;52.370;9.748;2023-08-17T10:05:45;18.50;99.90
8888;DHT22;4480;52.370;9.748;2023-08-17T10:08:18;18.50;99.90
8888;DHT22;4480;52.370;9.748;2023-08-17T10:10:47;18.40;99.90
8888;DHT22;4480;52.370;9.748;2023-08-17T10:13:20;18.30;99.90
8888;DHT22;4480;52.370;9.748;2023-08-17T10:15:55;18.20;99.90
8888;DHT22;4480;52.370;9.748;2023-08-17T10:18:31;18.20;99.90
8888;DHT22;4480;52.370;9.748;2023-08-17T10:21:01;18.20;99.90
8888;DHT22;4480;52.370;9.748;2023-08-17T10:23:31;18.10;99.90
8888;DHT22;4480;52.370;9.748;2023-08-17T10:26:01;18.10;99.90
8888;DHT22;4480;52.370;9.748;2023-08-17T10:28:29;18.10;99.90
8888;DHT22;4480;52.370;9.748;2023-08-17T10:30:57;18.10;99.90
8888;DHT22;4480;52.370;9.748;2023-08-17T10:33:25;18.10;99.90
8888;DHT22;4480;52.370;9.748;2023-08-17T10:35:52;18.20;99.90
8888;DHT22;4480;52.370;9.748;2023-08-17T10:38:19;18.20;99.90
8888;DHT22;4480;52.370;9.748;2023-08-17T10:41:11;18.30;99.90
8888;DHT22;4480;52.370;9.748;2023-08-17T10:43:57;18.40;99.90
8888;DHT22;4480;52.370;9.748;2023-08-17T10:46:34;18.50;99.90
8888;DHT22;4480;52.370;9.748;2023-08-17T10:49:03;18.40;99.90
8888;DHT22;4480;52.370;9.748;2023-08-17T10:51:31;18.30;99.90
8888;DHT22;4480;52.370;9.748;2023-08-17T10:54:00;18.30;99.90
8888;DHT22;4480;52.370;9.748;2023-08-17T10:56:30;18.30;99.90
8888;DHT22;4480;52.370;9.748;2023-08-17T10:58:59;18.30;99.90
8888;DHT22;4480;52.370;9.748;2023-08-17T11:01:34;18.40;99.90
8888;DHT22;4480;52.370;9.748;2023-08-17T11:04:19;18.40;99.90
8888;DHT22;4480;52.370;9.748;2023-08-17T11:07:00;18.40;99.90
8888;DHT22;4480;52.370;9.748;2023-08-17T11:09:29;18.40;99.90
8888;DHT22;4480;52.370;9.748;2023-08-17T11:12:00;18.30;99.90
8888;DHT22;4480;52.370;9.748;2023-08-17T11:14:33;18.20;99.90
8888;DHT22;4480;52.370;9.748;2023-08-17T11:16:59;18.10;99.90
8888;DHT22;4480;52.370;9.748;2023-08-17T11:19:26;18.00;99.90
8888;DHT22;4480;52.370;9.748;2023-08-17T11:21:53;17.90;99.90
8888;DHT22;4480;52.370;9.748;2023-08-17T11:24:19;17.80;99.90
8888;DHT22;4480;52.370;9.748;2023-08-17T11:26:48;17.70;99.90
8888;DHT22;4480;52.370;9.748;2023-08-17T11:29:16;17.70;99.90
8888;DHT22;4480;52.370;9.748;2023-08-17T11:31:42;17.60;99.90
8888;DHT22;4480;52.370;9.748;2023-08-17T11:34:14;17.60;99.90
8888;DHT22;4480;52.370;9.748;2023-08-17T11:36:41;17.60;99.90
8888;DHT22;4480;52.370;9.748;2023-08-17T11:39:07;17.70;99.90
8888;DHT22;4480;52.370;9.748;2023-08-17T11:41:34;17.80;99.90
8888;DHT22;4480;52.370;9.748;2023-08-17T11:44:02;17.90;99.90
8888;DHT22;4480;52.370;9.748;2023-08-17T11:46:30;17.90;99.90
8888;DHT22;4480;52.370;9.748;2023-08-17T11:48:59;17.90;99.90
8888;DHT22;4480;52.370;9.748;2023-08-17T11:51:29;18.00;99.90
8888;DHT22;4480;52.370;9.748;2023-08-17T11:53:58;18.00;99.90
8888;DHT22;4480;52.370;9.748;2023-08-17T11:56:26;18.20;99.90
8888;DHT22;4480;52.370;9.748;2023-08-17T11:58:52;18.30;99.90
8888;DHT22;4480;52.370;9.748;2023-08-17T12:01:19;18.40;99.90
8888;DHT22;4480;52.370;9.748;2023-08-17T12:03:48;18.60;99.90
8888;DHT22;4480;52.370;9.748;2023-08-17T12:06:16;18.80;99.90
8888;DHT22;4480;52.370;9.748;2023-08-17T12:08:43;18.90;99.90
8888;DHT22;4480;52.370;9.748;2023-08-17T12:11:11;18.90;99.90
8888;DHT22;4480;52.370;9.748;2023-08-17T12:13:38;19.10;99.90
8888;DHT22;4480;52.370;9.748;2023-08-17T12:16:04;19.10;99.90
8888;DHT22;4480;52.370;9.748;2023-08-17T12:18:32;19.10;99.90
8888;DHT22;4480;52.370;9.748;2023-08-17T12:21:01;19.10;99.90
8888;DHT22;4480;52.370;9.748;2023-08-17T12:23:28;19.10;99.90
8888;DHT22;4480;52.370;9.748;2023-08-17T12:25:55;19.00;99.90
8888;DHT22;4480;52.370;9.748;2023-08-17T12:28:23;18.90;99.90
8888;DHT22;4480;52.370;9.748;2023-08-17T12:30:57;18.80;99.90
8888;DHT22;4480;52.370;9.748;2023-08-17T12:33:24;18.80;99.90
8888;DHT22;4480;52.370;9.748;2023-08-17T12:35:51;18.80;99.90
8888;DHT22;4480;52.370;9.748;2023-08-17T12:38:20;18.80;99.90
8888;DHT22;4480;52.370;9.748;2023-08-17T12:40:47;18.80;99.90
8888;DHT22;4480;52.370;9.748;2023-08-17T12:43:13;18.90;99.90
8888;DHT22;4480;52.370;9.748;2023-08-17T12:45:40;18.90;99.90
8888;DHT22;4480;52.370;9.748;2023-08-17T12:48:07;18.80;99.90
8888;DHT22;4480;52.370;9.748;2023-08-17T12:50:33;18.80;99.90
8888;DHT22;4480;52.370;9.748;2023-08-17T12:53:00;18.70;99.90
8888;DHT22;4480;52.370;9.748;2023-08-17T12:55:28;18.60;99.90
8888;DHT22;4480;52.370;9.748;2023-08-17T12:57:55;18.60;99.90
8888;DHT22;4480;52.370;9.748;2023-08-17T13:00:22;18.60;99.90
8888;DHT22;4480;52.370;9.748;2023-08-17T13:02:49;18.60;99.90
8888;DHT22;4480;52.370;9.748;2023-08-17T13:05:17;18.60;99.90
8888;DHT22;4480;52.370;9.748;2023-08-17T13:07:43;18.60;99.90
8888;DHT22;4480;52.370;9.748;2023-08-17T13:10:10;18.50;99.90
8888;DHT22;4480;52.370;9.748;2023-08-17T13:12:38;18.50;99.90
8888;DHT22;4480;52.370;9.748;2023-08-17T13:15:06;18.50;99.90
8888;DHT22;4480;52.370;9.748;2023-08-17T13:17:33;18.50;99.90
8888;DHT22;4480;52.370;9.748;2023-08-17T13:20:00;18.60;99.90
8888;DHT22;4480;52.370;9.748;2023-08-17T13:22:26;18.60;99.90
8888;DHT22;4480;52.370;9.748;2023-08-17T13:24:53;18.60;99.90
8888;DHT22;4480;52.370;9.748;2023-08-17T13:27:20;18.60;99.90
8888;DHT22;4480;52.370;9.748;2023-08-17T13:29:48;18.60;99.90
8888;DHT22;4480;52.370;9.748;2023-08-17T13:32:15;18.60;99.90
8888;DHT22;4480;52.370;9.748;2023-08-17T13:34:41;18.60;99.90
8888;DHT22;4480;52.370;9.748;2023-08-17T13:37:08;18.50;99.90
8888;DHT22;4480;52.370;9.748;2023-08-17T13:39:35;18.50;99.90
8888;DHT22;4480;52.370;9.748;2023-08-17T13:42:02;18.60;99.90
8888;DHT22;4480;52.370;9.748;2023-08-17T13:44:28;18.60;99.90
8888;DHT22;4480;52.370;9.748;2023-08-17T13:46:56;18.50;99.90
8888;DHT22;4480;52.370;9.748;2023-08-17T13:49:23;18.50;99.90
8888;DHT22;4480;52.370;9.748;2023-08-17T13:51:50;18.40;99.90
8888;DHT22;4480;52.370;9.748;2023-08-17T13:54:17;18.40;99.90
8888;DHT22;4480;52.370;9.748;2023-08-17T13:56:43;18.40;99.90
8888;DHT22;4480;52.370;9.748;2023-08-17T13:59:10;18.40;99.90
8888;DHT22;4480;52.370;9.748;2023-08-17T14:01:37;18.40;99.90
8888;DHT22;4480;52.370;9.748;2023-08-17T14:04:05;18.50;99.90
8888;DHT22;4480;52.370;9.748;2023-08-17T14:06:37;18.50;99.90
8888;DHT22;4480;52.370;9.748;2023-08-17T14:09:04;18.50;99.90
8888;DHT22;4480;52.370;9.748;2023-08-17T14:11:31;18.50;99.90
8888;DHT22;4480;52.370;9.748;2023-08-17T14:13:58;18.60;99.90
8888;DHT22;4480;52.370;9.748;2023-08-17T14:16:24;18.60;99.90
8888;DHT22;4480;52.370;9.748;2023-08-17T14:18:51;18.70;99.90
8888;DHT22;4480;52.370;9.748;2023-08-17T14:21:19;18.70;99.90
8888;DHT22;4480;52.370;9.748;2023-08-17T14:23:46;18.70;99.90
8888;DHT22;4480;52.370;9.748;2023-08-17T14:26:13;18.60;99.90
8888;DHT22;4480;52.370;9.748;2023-08-17T14:28:40;18.50;99.90
8888;DHT22;4480;52.370;9.748;2023-08-17T14:31:07;18.50;99.90
8888;DHT22;4480;52.370;9.748;2023-08-17T14:33:34;18.50;99.90
8888;DHT22;4480;52.370;9.748;2023-08-17T14:36:00;18.40;99.90
8888;DHT22;4480;52.370;9.748;2023-08-17T14:38:28;18.30;99.90
8888;DHT22;4480;52.370;9.748;2023-08-17T14:40:56;18.30;99.90
8888;DHT22;4480;52.370;9.748;2023-08-17T14:43:22;18.30;99.90
8888;DHT22;4480;52.370;9.748;2023-08-17T14:45:49;18.30;99.90
8888;DHT22;4480;52.370;9.748;2023-08-17T14:48:16;18.20;99.90
8888;DHT22;4480;52.370;9.748;2023-08-17T14:50:43;18.20;99.90
8888;DHT22;4480;52.370;9.748;2023-08-17T14:53:09;18.10;99.90
8888;DHT22;4480;52.370;9.748;2023-08-17T14:55:37;18.00;99.90
8888;DHT22;4480;52.370;9.748;2023-08-17T14:58:04;18.00;99.90
8888;DHT22;4480;52.370;9.748;2023-08-17T15:00:31;18.10;99.90
8888;DHT22;4480;52.370;9.748;2023-08-17T15:02:58;18.10;99.90
8888;DHT22;4480;52.370;9.748;2023-08-17T15:05:25;18.20;99.90
8888;DHT22;4480;52.370;9.748;2023-08-17T15:07:52;18.20;99.90
8888;DHT22;4480;52.370;9.748;2023-08-17T15:10:19;18.20;99.90
8888;DHT22;4480;52.370;9.748;2023-08-17T15:12:47;18.30;99.90
8888;DHT22;4480;52.370;9.748;2023-08-17T15:15:14;18.30;99.90
8888;DHT22;4480;52.370;9.748;2023-08-17T15:17:41;18.30;99.90
8888;DHT22;4480;52.370;9.748;2023-08-17T15:20:08;18.30;99.90
8888;DHT22;4480;52.370;9.748;2023-08-17T15:22:35;18.20;99.90
8888;DHT22;4480;52.370;9.748;2023-08-17T15:25:02;18.20;99.90
8888;DHT22;4480;52.370;9.748;2023-08-17T15:27:29;18.20;99.90
8888;DHT22;4480;52.370;9.748;2023-08-17T15:29:57;18.20;99.90
8888;DHT22;4480;52.370;9.748;2023-08-17T15:32:24;18.20;99.90
8888;DHT22;4480;52.370;9.748;2023-08-17T15:34:50;18.20;99.90
8888;DHT22;4480;52.370;9.748;2023-08-17T15:37:17;18.20;99.90
8888;DHT22;4480;52.370;9.748;2023-08-17T15:39:44;18.20;99.90
8888;DHT22;4480;52.370;9.748;2023-08-17T15:42:11;18.20;99.90
8888;DHT22;4480;52.370;9.748;2023-08-17T15:44:38;18.20;99.90
8888;DHT22;4480;52.370;9.748;2023-08-17T15:47:06;18.20;99.90
8888;DHT22;4480;52.370;9.748;2023-08-17T15:49:33;18.20;99.90
8888;DHT22;4480;52.370;9.748;2023-08-17T15:51:59;18.30;99.90
8888;DHT22;4480;52.370;9.748;2023-08-17T15:54:26;18.20;99.90
8888;DHT22;4480;52.370;9.748;2023-08-17T15:56:53;18.20;99.90
8888;DHT22;4480;52.370;9.748;2023-08-17T15:59:20;18.10;99.90
8888;DHT22;4480;52.370;9.748;2023-08-17T16:01:46;18.20;99.90
8888;DHT22;4480;52.370;9.748;2023-08-17T16:04:14;18.20;99.90
8888;DHT22;4480;52.370;9.748;2023-08-17T16:06:42;18.20;99.90